Time;durP1;ratioP1;P1;durP2;ratioP2;P2;SDS_P1;SDS_P2;PMS_P1;PMS_P2;Temp;Humidity;BMP_temperature;BMP_pressure;BME280_temperature;BME280_humidity;BME280_pressure;Samples;Min_cycle;Max_cycle;Signal;HPM_P1;HPM_P2
2021/07/26 00:00:59;;;;;;;23.20;15.18;;;;;;;19.20;100.00;101366.87;1807685;79;21164;-89
2021/07/26 00:03:26;;;;;;;15.48;13.65;;;;;;;19.16;100.00;101365.53;1776118;79;21032;-88
2021/07/26 00:05:59;;;;;;;20.65;13.85;;;;;;;19.08;100.00;101363.64;1807889;78;21061;-92
2021/07/26 00:08:28;;;;;;;20.17;14.60;;;;;;;19.02;100.00;101374.00;1807879;79;20983;-89
2021/07/26 00:11:07;;;;;;;19.98;13.32;;;;;;;18.94;100.00;101366.84;1807711;79;20970;-90
2021/07/26 00:13:36;;;;;;;21.07;13.70;;;;;;;18.88;100.00;101368.73;1807779;78;20964;-86
2021/07/26 00:16:05;;;;;;;20.92;13.85;;;;;;;18.83;100.00;101370.52;1776417;79;21831;-88
2021/07/26 00:18:34;;;;;;;19.90;12.77;;;;;;;18.78;100.00;101374.10;1807996;78;20934;-86
2021/07/26 00:21:03;;;;;;;21.93;12.73;;;;;;;18.73;100.00;101371.91;1807777;78;20990;-92
2021/07/26 00:23:30;;;;;;;16.17;12.65;;;;;;;18.73;100.00;101368.43;1808065;79;20963;-88
2021/07/26 00:25:57;;;;;;;19.77;12.20;;;;;;;18.73;100.00;101375.02;1776370;79;21049;-87
2021/07/26 00:28:26;;;;;;;15.78;12.65;;;;;;;18.71;100.00;101370.38;1807646;78;20983;-93
2021/07/26 00:30:55;;;;;;;16.97;12.47;;;;;;;18.69;100.00;101371.05;1807436;79;21006;-87
2021/07/26 00:34:15;;;;;;;20.70;12.55;;;;;;;18.69;100.00;101376.32;1807903;78;21987;-88
2021/07/26 00:36:45;;;;;;;17.98;11.78;;;;;;;18.67;100.00;101371.17;1807846;79;21041;-88
2021/07/26 00:39:15;;;;;;;16.65;11.78;;;;;;;18.67;100.00;101369.04;1808184;79;21034;-89
2021/07/26 00:41:43;;;;;;;12.43;11.20;;;;;;;18.67;100.00;101367.72;1776507;79;21074;-87
2021/07/26 00:44:10;;;;;;;14.75;12.00;;;;;;;18.69;100.00;101369.72;1808016;79;21003;-88
2021/07/26 00:46:38;;;;;;;16.50;13.68;;;;;;;18.80;100.00;101372.12;1776584;79;20939;-88
2021/07/26 00:49:09;;;;;;;14.23;12.73;;;;;;;18.85;100.00;101369.88;1808126;79;21054;-85
2021/07/26 00:51:38;;;;;;;17.30;12.70;;;;;;;18.83;100.00;101367.88;1776589;79;21049;-88
2021/07/26 00:54:06;;;;;;;15.15;12.47;;;;;;;18.84;100.00;101370.85;1776469;79;21799;-88
2021/07/26 00:56:34;;;;;;;20.52;12.93;;;;;;;18.85;100.00;101371.20;1776181;79;21038;-87
2021/07/26 00:59:01;;;;;;;16.75;12.70;;;;;;;18.84;100.00;101370.01;1808133;78;20993;-86
2021/07/26 01:01:29;;;;;;;14.05;12.20;;;;;;;18.94;100.00;101367.34;1776267;79;21781;-90
2021/07/26 01:03:56;;;;;;;17.50;12.20;;;;;;;19.04;100.00;101363.63;1776454;79;21493;-90
2021/07/26 01:06:23;;;;;;;18.25;12.68;;;;;;;19.17;100.00;101365.03;1776304;79;20924;-89
2021/07/26 01:08:50;;;;;;;18.73;12.50;;;;;;;19.33;100.00;101365.65;1776455;79;21030;-90
2021/07/26 01:11:17;;;;;;;15.48;12.03;;;;;;;19.42;100.00;101364.73;1776422;79;21097;-90
2021/07/26 01:13:45;;;;;;;16.45;11.75;;;;;;;19.47;100.00;101359.79;1807879;78;20955;-90
2021/07/26 01:16:12;;;;;;;16.97;11.20;;;;;;;19.50;100.00;101367.41;1776341;79;21564;-90
2021/07/26 01:18:39;;;;;;;12.88;11.18;;;;;;;19.40;100.00;101361.41;1776249;79;21502;-90
2021/07/26 01:21:12;;;;;;;16.40;11.45;;;;;;;19.25;100.00;101365.59;1807767;79;21485;-89
2021/07/26 01:23:41;;;;;;;17.30;11.68;;;;;;;19.11;100.00;101375.70;1776255;79;21516;-90
2021/07/26 01:26:13;;;;;;;14.90;11.63;;;;;;;18.96;100.00;101368.00;1807703;78;21049;-90
2021/07/26 01:28:42;;;;;;;;;;;;;;;18.84;100.00;101369.53;1810553;78;21647;-90
2021/07/26 01:31:13;;;;;;;18.07;12.10;;;;;;;18.73;100.00;101369.75;1807958;78;21117;-87
2021/07/26 01:33:42;;;;;;;17.02;10.80;;;;;;;18.62;100.00;101378.72;1776452;79;20991;-91
2021/07/26 01:36:10;;;;;;;19.55;11.65;;;;;;;18.65;100.00;101382.86;1776199;79;21088;-87
2021/07/26 01:38:39;;;;;;;17.37;11.63;;;;;;;18.73;100.00;101385.58;1776294;79;20994;-88
2021/07/26 01:41:11;;;;;;;14.63;11.63;;;;;;;18.80;100.00;101380.03;1776557;78;21018;-88
2021/07/26 01:43:50;;;;;;;15.25;11.60;;;;;;;18.86;100.00;101376.81;1807733;78;21149;-87
2021/07/26 01:46:34;;;;;;;18.17;11.65;;;;;;;18.94;100.00;101381.34;1803414;78;20962;-87
2021/07/26 01:49:32;;;;;;;14.30;10.82;;;;;;;19.01;100.00;101385.54;1807927;79;21018;-87
2021/07/26 01:52:02;;;;;;;13.13;11.73;;;;;;;19.04;100.00;101383.42;1778446;78;21022;-86
2021/07/26 01:54:29;;;;;;;14.68;11.63;;;;;;;19.07;100.00;101383.60;1776393;79;21034;-89
2021/07/26 01:56:57;;;;;;;14.93;12.28;;;;;;;19.10;100.00;101393.02;1776419;79;21123;-87
2021/07/26 01:59:24;;;;;;;13.28;11.45;;;;;;;19.13;100.00;101386.13;1776024;79;20974;-90
2021/07/26 02:01:51;;;;;;;11.35;10.05;;;;;;;19.10;100.00;101399.62;1807751;79;20979;-88
2021/07/26 02:04:18;;;;;;;14.43;10.68;;;;;;;19.02;100.00;101396.44;1776121;79;20951;-86
2021/07/26 02:06:45;;;;;;;12.40;10.40;;;;;;;18.90;100.00;101400.58;1775987;79;21038;-91
2021/07/26 02:09:13;;;;;;;13.38;11.08;;;;;;;18.77;100.00;101402.78;1776132;79;21056;-85
2021/07/26 02:11:41;;;;;;;11.75;10.30;;;;;;;18.65;100.00;101400.00;1807606;78;21084;-90
2021/07/26 02:14:10;;;;;;;11.28;10.08;;;;;;;18.55;100.00;101404.84;1776253;79;21492;-86
2021/07/26 02:16:42;;;;;;;14.90;10.72;;;;;;;18.46;100.00;101407.08;1776527;78;21037;-90
2021/07/26 02:19:09;;;;;;;15.85;10.90;;;;;;;18.38;100.00;101404.36;1776211;79;21737;-89
2021/07/26 02:21:36;;;;;;;20.43;10.28;;;;;;;18.42;100.00;101408.34;1776417;79;21648;-91
2021/07/26 02:24:03;;;;;;;20.92;10.63;;;;;;;18.52;100.00;101406.48;1776211;79;21053;-88
2021/07/26 02:26:30;;;;;;;19.35;11.38;;;;;;;18.66;100.00;101406.94;1807690;79;21029;-90
2021/07/26 02:28:57;;;;;;;19.40;11.12;;;;;;;18.77;100.00;101410.69;1776224;79;21481;-88
2021/07/26 02:31:25;;;;;;;12.00;10.48;;;;;;;18.87;100.00;101412.75;1807880;79;21046;-90
2021/07/26 02:33:52;;;;;;;16.07;10.55;;;;;;;18.94;100.00;101414.33;1776281;79;21783;-88
2021/07/26 02:36:19;;;;;;;14.23;10.32;;;;;;;18.94;100.00;101410.37;1807890;78;21034;-86
2021/07/26 02:38:47;;;;;;;15.28;11.12;;;;;;;18.98;100.00;101422.77;1776289;79;21060;-86
2021/07/26 02:41:15;;;;;;;16.55;10.38;;;;;;;19.03;100.00;101417.86;1808213;79;20986;-90
2021/07/26 02:43:42;;;;;;;13.95;10.82;;;;;;;19.08;100.00;101416.44;1776186;79;21582;-87
2021/07/26 02:46:10;;;;;;;13.00;10.48;;;;;;;19.15;100.00;101415.34;1807840;78;21493;-88
2021/07/26 02:48:39;;;;;;;16.93;11.35;;;;;;;19.22;100.00;101416.39;1776297;79;20994;-88
2021/07/26 02:51:07;;;;;;;16.32;10.55;;;;;;;19.20;100.00;101422.81;1807708;78;20982;-90
2021/07/26 02:53:35;;;;;;;13.25;10.30;;;;;;;19.21;100.00;101418.69;1807620;79;20983;-91
2021/07/26 02:56:08;;;;;;;12.60;10.58;;;;;;;19.20;100.00;101424.13;1776399;78;20939;-85
2021/07/26 02:58:35;;;;;;;13.53;10.75;;;;;;;19.11;100.00;101435.09;1808993;78;21132;-86
2021/07/26 03:01:04;;;;;;;11.40;10.05;;;;;;;19.03;100.00;101436.34;1810005;77;20995;-88
2021/07/26 03:03:33;;;;;;;13.43;10.95;;;;;;;18.98;100.00;101442.57;1806913;79;21038;-89
2021/07/26 03:06:00;;;;;;;15.50;10.10;;;;;;;19.00;100.00;101447.22;1810264;78;21754;-88
2021/07/26 03:08:30;;;;;;;27.30;11.18;;;;;;;19.04;100.00;101440.64;1809981;77;21042;-88
2021/07/26 03:11:10;;;;;;;17.75;10.38;;;;;;;19.13;100.00;101439.73;1814340;77;21237;-89
2021/07/26 03:13:41;;;;;;;18.80;10.58;;;;;;;19.24;100.00;101437.34;1822768;77;21421;-90
2021/07/26 03:16:11;;;;;;;12.78;10.63;;;;;;;19.34;100.00;101435.45;1776502;78;21070;-89
2021/07/26 03:18:38;;;;;;;16.17;11.05;;;;;;;19.46;100.00;101442.64;1807626;78;20975;-90
2021/07/26 03:21:07;;;;;;;17.07;10.78;;;;;;;19.53;100.00;101444.19;1776816;78;21521;-89
2021/07/26 03:23:33;;;;;;;18.37;11.80;;;;;;;19.60;100.00;101441.73;1810842;77;21811;-89
2021/07/26 03:26:01;;;;;;;16.32;11.12;;;;;;;19.67;100.00;101444.94;1779386;78;21520;-91
2021/07/26 03:28:28;;;;;;;13.25;10.28;;;;;;;19.74;100.00;101443.84;1790046;78;20987;-89
2021/07/26 03:30:54;;;;;;;16.20;10.75;;;;;;;19.80;100.00;101441.04;1738317;80;21095;-90
2021/07/26 03:33:21;;;;;;;10.80;9.60;;;;;;;19.85;100.00;101436.98;1840870;77;21034;-89
2021/07/26 03:35:48;;;;;;;31.77;11.35;;;;;;;19.89;100.00;101435.36;1769936;80;21129;-87
2021/07/26 03:38:17;;;;;;;25.40;10.32;;;;;;;19.86;100.00;101436.50;1840827;77;20971;-87
2021/07/26 03:40:47;;;;;;;21.55;10.72;;;;;;;19.93;100.00;101432.25;1769959;80;21077;-88
2021/07/26 03:43:15;;;;;;;24.57;11.60;;;;;;;20.02;100.00;101438.39;1736191;80;21679;-90
2021/07/26 03:45:42;;;;;;;27.42;10.63;;;;;;;20.13;100.00;101443.41;1806808;78;20954;-87
2021/07/26 03:48:10;;;;;;;15.53;11.03;;;;;;;20.24;100.00;101441.45;1738239;81;20935;-88
2021/07/26 03:50:39;;;;;;;16.32;10.75;;;;;;;20.30;100.00;101431.58;1739263;80;21038;-89
2021/07/26 03:53:07;;;;;;;16.50;9.80;;;;;;;20.38;100.00;101435.58;1840955;77;21060;-91
2021/07/26 03:55:36;;;;;;;16.80;9.98;;;;;;;20.43;100.00;101435.09;1769072;81;21050;-91
2021/07/26 03:58:04;;;;;;;15.43;9.85;;;;;;;20.47;100.00;101437.73;1813978;78;20995;-89
2021/07/26 04:00:32;;;;;;;13.53;9.83;;;;;;;20.51;100.00;101436.92;1776271;79;21593;-87
2021/07/26 04:05:52;;;;;;;15.35;10.90;;;;;;;20.49;100.00;101444.52;1776158;79;20986;-89
2021/07/26 04:08:15;;;;;;;15.70;11.25;;;;;;;20.44;100.00;101443.34;1800598;78;21088;-91
2021/07/26 04:10:48;;;;;;;;;;;;;;;20.40;100.00;101440.19;1810585;78;21093;-89
2021/07/26 04:13:15;;;;;;;13.38;10.60;;;;;;;20.39;100.00;101439.85;1807423;77;22010;-88
2021/07/26 04:15:49;;;;;;;14.23;10.78;;;;;;;20.42;100.00;101439.55;1807739;78;20978;-87
2021/07/26 04:25:57;;;;;;;15.13;11.68;;;;;;;20.61;100.00;101437.63;1802614;78;21010;-85
2021/07/26 04:29:20;;;;;;;20.20;12.53;;;;;;;20.65;100.00;101446.40;1805054;78;21838;-90
2021/07/26 04:32:13;;;;;;;;;;;;;;;;;;;;;
2021/07/26 04:37:56;;;;;;;15.72;12.47;;;;;;;21.01;100.00;101444.48;1806166;78;21085;-88
2021/07/26 04:40:25;;;;;;;15.05;11.75;;;;;;;21.09;100.00;101444.48;1804563;78;20939;-89
2021/07/26 04:43:53;;;;;;;18.63;11.17;;;;;;;21.17;100.00;101446.33;1807175;78;21976;-89
2021/07/26 04:46:17;;;;;;;16.55;11.60;;;;;;;21.24;100.00;101447.31;1805961;78;21484;-89
2021/07/26 04:49:01;;;;;;;24.43;11.88;;;;;;;21.36;100.00;101442.52;1792482;79;20955;-87
2021/07/26 04:52:12;;;;;;;19.75;11.73;;;;;;;21.42;100.00;101446.66;1785396;79;21600;-87
2021/07/26 04:57:36;;;;;;;15.43;10.50;;;;;;;21.57;100.00;101444.64;1658715;86;21169;-86
2021/07/26 05:03:11;;;;;;;12.40;11.10;;;;;;;21.75;100.00;101442.63;1536403;90;21064;-88
2021/07/26 05:09:26;;;;;;;13.25;10.60;;;;;;;21.87;100.00;101438.31;1541022;86;21542;-89
2021/07/26 05:12:42;;;;;;;11.93;10.65;;;;;;;21.96;100.00;101443.08;1629925;86;21326;-88
2021/07/26 05:15:13;;;;;;;28.15;11.45;;;;;;;22.02;100.00;101443.74;1583033;88;21171;-88
2021/07/26 05:17:57;;;;;;;22.20;10.82;;;;;;;22.10;100.00;101445.04;1589201;89;21072;-88
2021/07/26 05:20:24;;;;;;;11.70;10.50;;;;;;;22.17;100.00;101446.48;1594580;88;21088;-83
2021/07/26 05:23:03;;;;;;;;;;;;;;;;;;;;;
2021/07/26 05:25:33;;;;;;;12.95;10.55;;;;;;;22.29;100.00;101445.12;1591266;88;21117;-86
2021/07/26 05:42:11;;;;;;;13.55;10.70;;;;;;;22.68;100.00;101440.78;1476464;94;21157;-86
2021/07/26 05:46:02;;;;;;;10.95;9.13;;;;;;;22.76;100.00;101446.03;1473257;96;21157;-88
2021/07/26 05:48:37;;;;;;;11.63;9.45;;;;;;;22.84;100.00;101451.81;1444106;97;21259;-86
2021/07/26 05:51:15;;;;;;;9.93;9.00;;;;;;;22.94;100.00;101444.45;1502745;91;21074;-87
2021/07/26 05:56:48;;;;;;;10.20;9.18;;;;;;;23.12;100.00;101444.13;1432666;97;21129;-89
2021/07/26 05:59:21;;;;;;;10.25;8.78;;;;;;;23.20;100.00;101441.92;1547050;91;21094;-87
2021/07/26 06:01:48;;;;;;;14.75;9.05;;;;;;;23.31;100.00;101443.35;1567956;91;21086;-85
2021/07/26 06:04:34;;;;;;;14.00;9.25;;;;;;;23.42;100.00;101430.13;1605629;85;21576;-86
2021/07/26 06:06:55;;;;;;;15.78;8.35;;;;;;;23.52;100.00;101432.52;1639149;86;21024;-87
2021/07/26 06:09:26;;;;;;;9.73;8.73;;;;;;;23.64;100.00;101429.72;1598773;88;21177;-86
2021/07/26 06:12:02;;;;;;;11.93;9.30;;;;;;;23.74;100.00;101428.14;1694164;80;21038;-87
2021/07/26 06:14:28;;;;;;;13.32;9.43;;;;;;;23.83;100.00;101432.37;1724717;80;21051;-87
2021/07/26 06:16:59;;;;;;;14.18;9.85;;;;;;;23.92;100.00;101436.55;1750630;81;21611;-86
2021/07/26 06:19:51;;;;;;;15.88;9.93;;;;;;;24.03;100.00;101431.33;1763486;79;21070;-90
2021/07/26 06:26:22;;;;;;;15.45;9.13;;;;;;;24.26;100.00;101433.84;1536508;92;21683;-89
2021/07/26 06:29:01;;;;;;;;;;;;;;;;;;;;;
2021/07/26 06:31:33;;;;;;;14.50;9.70;;;;;;;24.50;100.00;101429.20;1603780;87;21043;-90
2021/07/26 06:34:01;;;;;;;13.05;9.18;;;;;;;24.62;100.00;101431.38;1576796;87;21006;-88
2021/07/26 06:36:30;;;;;;;15.75;9.65;;;;;;;24.73;100.00;101425.56;1643185;84;21100;-91
2021/07/26 06:38:57;;;;;;;19.45;9.28;;;;;;;24.84;100.00;101428.23;1687115;83;21068;-90
2021/07/26 06:41:25;;;;;;;13.88;8.98;;;;;;;24.97;100.00;101426.19;1801293;79;21049;-90
2021/07/26 06:43:52;;;;;;;10.05;8.73;;;;;;;25.08;100.00;101424.36;1741657;79;20963;-89
2021/07/26 06:46:21;;;;;;;15.20;8.65;;;;;;;25.20;100.00;101428.12;1801660;77;21030;-87
2021/07/26 06:48:49;;;;;;;13.95;8.88;;;;;;;25.31;100.00;101429.47;1808717;77;21165;-88
2021/07/26 06:51:16;;;;;;;11.03;7.67;;;;;;;25.41;98.49;101427.81;1808864;77;21050;-88
2021/07/26 06:53:44;;;;;;;14.80;7.92;;;;;;;25.51;100.00;101427.47;1726889;80;21050;-88
2021/07/26 06:56:11;;;;;;;11.75;8.08;;;;;;;25.63;96.91;101430.41;1781035;77;20983;-87
2021/07/26 06:58:41;;;;;;;10.58;8.63;;;;;;;25.76;100.00;101431.81;1769377;80;20965;-88
2021/07/26 07:01:12;;;;;;;9.10;8.08;;;;;;;25.88;100.00;101433.41;1807801;77;21072;-88
2021/07/26 07:03:43;;;;;;;9.75;8.25;;;;;;;26.01;100.00;101429.98;1840683;77;21084;-88
2021/07/26 07:06:13;;;;;;;10.98;7.47;;;;;;;26.13;94.00;101432.45;1807295;78;21508;-88
2021/07/26 07:08:44;;;;;;;8.95;7.75;;;;;;;26.33;91.15;101434.34;1808118;77;21011;-89
2021/07/26 07:11:17;;;;;;;9.25;7.55;;;;;;;26.33;91.15;101434.34;1840307;77;20991;-87
2021/07/26 07:13:48;;;;;;;8.40;7.10;;;;;;;26.43;92.79;101435.32;1840849;77;20987;-87
2021/07/26 07:16:17;;;;;;;9.98;6.83;;;;;;;26.52;85.81;101434.08;1739244;81;21022;-88
2021/07/26 07:18:47;;;;;;;8.38;6.62;;;;;;;26.64;77.39;101436.17;1841170;77;21522;-89
2021/07/26 07:21:24;;;;;;;7.45;6.40;;;;;;;26.75;79.98;101437.73;1840599;77;21117;-88
2021/07/26 07:23:52;;;;;;;8.43;7.10;;;;;;;26.88;84.33;101438.83;1840695;77;21073;-87
2021/07/26 07:26:22;;;;;;;7.62;6.78;;;;;;;27.02;70.88;101436.95;1841228;78;21108;-88
2021/07/26 07:28:49;;;;;;;7.92;7.15;;;;;;;27.15;77.38;101438.81;1769678;80;21053;-88
2021/07/26 07:31:23;;;;;;;7.20;6.50;;;;;;;27.26;71.34;101443.55;1841189;77;21046;-88
2021/07/26 07:33:45;;;;;;;7.90;6.08;;;;;;;27.36;70.37;101438.58;1833951;77;21643;-88
2021/07/26 07:36:12;;;;;;;13.28;6.67;;;;;;;27.47;73.33;101442.53;1739468;81;21062;-87
2021/07/26 07:38:40;;;;;;;14.20;6.70;;;;;;;27.54;64.24;101439.33;1808066;77;21356;-87
2021/07/26 07:41:07;;;;;;;15.83;6.90;;;;;;;27.62;59.34;101438.27;1840928;77;21007;-86
2021/07/26 07:43:35;;;;;;;8.13;6.20;;;;;;;27.69;62.43;101430.23;1807992;78;20979;-86
2021/07/26 07:46:03;;;;;;;7.05;6.40;;;;;;;27.79;63.45;101429.78;1840994;77;21019;-85
2021/07/26 07:48:31;;;;;;;7.05;6.08;;;;;;;27.88;58.41;101430.39;1769536;81;21043;-85
2021/07/26 07:51:00;;;;;;;7.00;6.40;;;;;;;27.98;58.76;101431.58;1840947;78;21084;-88
2021/07/26 07:53:27;;;;;;;8.00;6.15;;;;;;;28.06;56.60;101433.21;1807943;78;21046;-88
2021/07/26 07:55:55;;;;;;;10.45;5.67;;;;;;;28.13;55.71;101438.55;1739383;80;21018;-88
2021/07/26 07:58:22;;;;;;;7.58;6.35;;;;;;;28.21;57.06;101430.77;1805009;78;21056;-87
2021/07/26 08:00:52;;;;;;;7.72;5.53;;;;;;;28.30;57.72;101434.35;1831317;78;21046;-88
2021/07/26 08:03:20;;;;;;;11.63;5.58;;;;;;;28.40;56.50;101429.86;1840790;77;21134;-88
2021/07/26 08:05:48;;;;;;;10.10;6.20;;;;;;;28.46;55.63;101431.67;1808188;78;21081;-87
2021/07/26 08:08:16;;;;;;;11.93;5.58;;;;;;;28.56;57.08;101433.06;1769575;81;20915;-88
2021/07/26 08:10:45;;;;;;;8.53;5.53;;;;;;;28.69;60.88;101432.96;1714926;81;21101;-87
2021/07/26 08:13:18;;;;;;;7.05;5.97;;;;;;;28.81;55.46;101438.47;1769539;80;20959;-88
2021/07/26 08:15:55;;;;;;;14.68;6.30;;;;;;;28.90;52.06;101440.38;1804888;78;21068;-88
2021/07/26 08:18:23;;;;;;;9.55;5.53;;;;;;;28.99;45.94;101434.22;1840738;77;20919;-88
2021/07/26 08:20:51;;;;;;;8.45;6.00;;;;;;;29.04;46.43;101435.74;1840668;77;21070;-88
2021/07/26 08:23:18;;;;;;;8.05;5.75;;;;;;;29.10;45.65;101434.33;1807930;77;20978;-87
2021/07/26 08:25:46;;;;;;;6.70;5.40;;;;;;;29.18;47.20;101439.95;1841164;77;21077;-87
2021/07/26 08:28:13;;;;;;;10.60;6.00;;;;;;;29.25;45.94;101435.34;1769442;80;21147;-88
2021/07/26 08:30:40;;;;;;;6.37;5.80;;;;;;;29.34;44.60;101435.09;1769722;80;21002;-88
2021/07/26 08:33:07;;;;;;;7.72;6.45;;;;;;;29.41;46.56;101430.48;1739241;81;21078;-87
2021/07/26 08:35:35;;;;;;;9.30;6.03;;;;;;;29.48;46.14;101439.80;1808034;77;21567;-88
2021/07/26 08:38:04;;;;;;;8.08;6.42;;;;;;;29.51;45.64;101428.11;1840363;77;21652;-89
2021/07/26 08:40:32;;;;;;;7.85;5.65;;;;;;;29.57;45.04;101427.72;1769787;80;21128;-89
2021/07/26 08:43:05;;;;;;;7.05;5.42;;;;;;;29.66;45.93;101425.58;1840525;77;21015;-87
2021/07/26 08:45:32;;;;;;;7.33;5.72;;;;;;;29.73;45.03;101424.97;1801980;78;21014;-88
2021/07/26 08:48:06;;;;;;;9.05;5.85;;;;;;;29.80;46.13;101427.59;1807951;78;21128;-88
2021/07/26 08:50:36;;;;;;;9.85;5.90;;;;;;;29.86;47.85;101419.97;1800341;77;20935;-88
2021/07/26 08:53:07;;;;;;;8.50;6.53;;;;;;;30.00;45.21;101419.33;1840785;77;21774;-88
2021/07/26 08:55:35;;;;;;;7.10;6.40;;;;;;;30.13;43.55;101428.53;1835731;77;20986;-87
2021/07/26 08:58:04;;;;;;;20.05;6.62;;;;;;;30.18;41.75;101425.98;1808056;78;20995;-88
2021/07/26 09:00:33;;;;;;;8.97;5.53;;;;;;;30.24;42.88;101423.45;1809396;78;21026;-88
2021/07/26 09:03:02;;;;;;;9.75;6.40;;;;;;;30.32;40.29;101420.45;1808198;78;21689;-88
2021/07/26 09:05:31;;;;;;;9.95;5.95;;;;;;;30.38;40.57;101418.18;1840700;77;21504;-88
2021/07/26 09:08:01;;;;;;;7.08;5.42;;;;;;;30.43;39.64;101420.98;1808061;78;21027;-87
2021/07/26 09:10:35;;;;;;;6.75;6.15;;;;;;;30.47;40.41;101415.97;1739129;80;21121;-88
2021/07/26 09:13:03;;;;;;;8.70;5.92;;;;;;;30.49;39.23;101413.89;1739274;80;21152;-89
2021/07/26 09:15:35;;;;;;;6.55;5.95;;;;;;;30.48;39.27;101406.36;1840710;77;21469;-89
2021/07/26 09:18:05;;;;;;;;;;;;;;;30.55;40.58;101410.84;1843619;77;21126;-88
2021/07/26 09:20:36;;;;;;;7.72;6.10;;;;;;;30.64;40.48;101416.19;1794820;78;20124;-88
2021/07/26 09:23:13;;;;;;;8.10;5.75;;;;;;;30.70;39.66;101413.91;1716899;80;21112;-88
2021/07/26 09:25:52;;;;;;;19.10;6.90;;;;;;;30.78;40.41;101412.22;1813434;77;20956;-88
2021/07/26 09:28:20;;;;;;;6.87;5.75;;;;;;;30.86;41.96;101409.70;1791736;79;21006;-88
2021/07/26 09:30:55;;;;;;;9.43;6.42;;;;;;;30.96;41.03;101415.88;1793117;79;21112;-88
2021/07/26 09:33:30;;;;;;;8.25;6.30;;;;;;;31.02;39.05;101402.83;1791793;79;21010;-88
2021/07/26 09:36:12;;;;;;;8.55;6.33;;;;;;;31.10;38.03;101407.89;1792586;77;21101;-88
2021/07/26 09:38:55;;;;;;;11.60;8.18;;;;;;;31.14;35.67;101406.36;1792160;79;21069;-88
2021/07/26 09:41:48;;;;;;;7.55;6.37;;;;;;;31.13;37.20;101406.60;1811911;77;20963;-89
2021/07/26 09:44:26;;;;;;;9.43;7.00;;;;;;;31.14;36.31;101399.63;1813252;77;21836;-89
2021/07/26 09:46:54;;;;;;;9.80;6.90;;;;;;;31.21;36.94;101401.41;1790486;78;20919;-88
2021/07/26 09:49:22;;;;;;;8.83;7.00;;;;;;;31.25;36.48;101409.28;1809851;77;20952;-88
2021/07/26 09:52:12;;;;;;;9.30;7.33;;;;;;;31.25;34.97;101406.59;1792785;77;21007;-87
2021/07/26 09:54:45;;;;;;;8.73;5.72;;;;;;;31.21;35.41;101396.03;1792200;79;21003;-88
2021/07/26 09:57:23;;;;;;;15.15;6.53;;;;;;;31.23;35.90;101397.94;1766733;77;21058;-89
2021/07/26 09:59:52;;;;;;;6.47;5.87;;;;;;;31.26;35.84;101389.41;1792423;79;20927;-88
2021/07/26 10:02:38;;;;;;;7.70;6.30;;;;;;;31.37;37.77;101391.78;1791486;78;21514;-88
2021/07/26 10:05:13;;;;;;;9.20;6.62;;;;;;;31.46;37.49;101388.48;1812052;77;21046;-87
2021/07/26 10:07:42;;;;;;;8.30;6.35;;;;;;;31.52;35.55;101385.38;1791606;78;21061;-87
2021/07/26 10:10:13;;;;;;;6.87;6.17;;;;;;;31.56;37.20;101381.68;1807659;78;21030;-87
2021/07/26 10:12:48;;;;;;;6.75;6.05;;;;;;;31.62;34.96;101378.87;1807730;78;21026;-87
2021/07/26 10:15:19;;;;;;;10.98;6.03;;;;;;;31.65;35.49;101380.26;1821566;77;21113;-87
2021/07/26 10:17:48;;;;;;;7.30;6.17;;;;;;;31.73;35.22;101377.77;1812874;77;20975;-87
2021/07/26 10:20:29;;;;;;;5.95;5.35;;;;;;;31.78;35.01;101375.16;1782988;79;20995;-87
2021/07/26 10:23:15;;;;;;;6.08;5.45;;;;;;;31.87;36.26;101371.55;1766146;78;21188;-87
2021/07/26 10:26:12;;;;;;;9.85;6.80;;;;;;;31.93;37.15;101371.92;1749328;79;20929;-87
2021/07/26 10:28:54;;;;;;;8.05;5.75;;;;;;;31.94;35.86;101370.87;1786084;77;21164;-87
2021/07/26 10:31:37;;;;;;;6.47;5.75;;;;;;;32.00;35.16;101365.05;1810089;77;21508;-87
2021/07/26 10:34:11;;;;;;;6.87;5.72;;;;;;;32.08;36.98;101364.16;1787330;78;21552;-86
2021/07/26 10:37:06;;;;;;;;;;;;;;;;;;;;;
2021/07/26 10:39:23;;;;;;;6.20;5.60;;;;;;;32.31;36.86;101360.23;1660287;85;21147;-87
2021/07/26 10:42:08;;;;;;;;;;;;;;;;;;;;;
2021/07/26 10:44:47;;;;;;;;;;;;;;;;;;;;;
2021/07/26 10:47:15;;;;;;;6.05;5.55;;;;;;;32.33;34.36;101354.88;1741332;80;21502;-86
2021/07/26 10:49:55;;;;;;;7.95;5.97;;;;;;;32.33;32.76;101357.58;1801771;77;21010;-88
2021/07/26 10:52:34;;;;;;;8.10;5.75;;;;;;;32.36;33.80;101354.95;1805955;78;21027;-89
2021/07/26 11:12:53;;;;;;;8.35;5.83;;;;;;;32.37;37.48;101345.27;1656572;86;21126;-88
2021/07/26 11:18:52;;;;;;;16.42;7.03;;;;;;;32.51;33.23;101344.42;1451371;96;21726;-86
2021/07/26 12:49:59;;;;;;;7.37;5.90;;;;;;;33.08;30.83;101293.19;1738993;81;21031;-89
2021/07/26 16:02:18;;;;;;;;;;;;;;;;;;;;;
2021/07/26 16:07:38;;;;;;;;;;;;;;;;;;;;;
2021/07/26 16:11:02;;;;;;;40.65;6.50;;;;;;;30.60;39.01;101252.42;1259234;110;21739;-94
2021/07/26 16:26:12;;;;;;;126.20;13.03;;;;;;;29.97;50.59;101251.98;1258731;111;21750;-92
2021/07/26 16:30:40;;;;;;;;;;;;;;;;;;;;;
2021/07/26 16:33:46;;;;;;;;;;;;;;;;;;;;;
2021/07/26 16:47:37;;;;;;;23.87;8.10;;;;;;;29.12;68.65;101244.59;1324229;106;21249;-94
2021/07/26 16:53:20;;;;;;;77.45;11.85;;;;;;;28.84;53.47;101252.34;1365785;103;21651;-88
2021/07/26 16:55:51;;;;;;;65.72;10.48;;;;;;;28.75;80.83;101254.48;1373404;99;21250;-89
2021/07/26 16:58:19;;;;;;;55.75;12.03;;;;;;;28.67;100.00;101257.41;1449762;94;21791;-86
2021/07/26 17:00:47;;;;;;;60.45;12.70;;;;;;;28.52;100.00;101255.09;1474276;95;22155;-86
2021/07/26 17:03:14;;;;;;;52.45;13.08;;;;;;;28.36;100.00;101261.80;1546336;91;21137;-87
2021/07/26 17:05:41;;;;;;;72.32;14.20;;;;;;;28.20;100.00;101254.62;1558908;90;21164;-85
2021/07/26 17:08:08;;;;;;;83.50;18.52;;;;;;;28.06;100.00;101257.91;1558755;90;21143;-89
2021/07/26 17:10:35;;;;;;;70.57;20.08;;;;;;;27.93;100.00;101260.65;1538986;90;21136;-91
2021/07/26 17:13:04;;;;;;;77.85;22.62;;;;;;;27.80;100.00;101255.66;1560617;87;21107;-85
2021/07/26 17:15:33;;;;;;;53.90;21.73;;;;;;;27.71;100.00;101252.43;1646257;85;21533;-87
2021/07/26 17:18:02;;;;;;;66.07;19.85;;;;;;;27.62;100.00;101241.67;1624034;87;21133;-86
2021/07/26 17:20:31;;;;;;;40.95;17.23;;;;;;;27.55;100.00;101251.59;1624511;85;21082;-89
2021/07/26 17:22:58;;;;;;;45.12;16.67;;;;;;;27.47;100.00;101250.00;1728672;80;20946;-87
2021/07/26 17:25:26;;;;;;;41.18;14.80;;;;;;;27.39;100.00;101245.67;1775852;79;21124;-86
2021/07/26 17:27:53;;;;;;;48.15;13.15;;;;;;;27.31;100.00;101245.09;1775852;79;21045;-88
2021/07/26 17:30:20;;;;;;;146.30;17.77;;;;;;;27.21;100.00;101254.88;1780550;77;21588;-84
2021/07/26 17:32:47;;;;;;;100.20;17.12;;;;;;;27.13;100.00;101252.44;1803120;77;20998;-86
2021/07/26 17:35:14;;;;;;;65.75;14.33;;;;;;;27.03;100.00;101250.22;1750030;81;21104;-87
2021/07/26 17:37:41;;;;;;;139.37;19.07;;;;;;;26.93;100.00;101254.14;1780262;78;21101;-86
2021/07/26 17:40:08;;;;;;;87.70;17.07;;;;;;;26.84;100.00;101251.91;1769648;80;20999;-88
2021/07/26 17:42:35;;;;;;;82.70;18.52;;;;;;;26.74;100.00;101249.11;1739049;81;20971;-85
2021/07/26 17:45:02;;;;;;;88.33;20.65;;;;;;;26.67;100.00;101247.50;1806486;78;21053;-86
2021/07/26 17:47:29;;;;;;;50.50;18.10;;;;;;;26.59;100.00;101248.52;1835470;77;20983;-85
2021/07/26 17:49:56;;;;;;;53.58;16.65;;;;;;;26.50;100.00;101251.09;1840635;77;21106;-86
2021/07/26 17:52:23;;;;;;;57.83;17.12;;;;;;;26.43;100.00;101257.78;1737510;81;20948;-84
2021/07/26 17:54:51;;;;;;;431.35;39.20;;;;;;;26.33;100.00;101254.16;1840475;78;20978;-90
2021/07/26 17:57:18;;;;;;;300.68;32.05;;;;;;;26.24;100.00;101257.56;1804423;78;21054;-90
2021/07/26 17:59:45;;;;;;;221.18;30.05;;;;;;;26.16;100.00;101252.95;1776780;79;21063;-90
2021/07/26 18:02:13;;;;;;;247.12;34.60;;;;;;;26.07;100.00;101254.44;1807832;78;21531;-91